Time;durP1;ratioP1;P1;durP2;ratioP2;P2;SDS_P1;SDS_P2;PMS_P1;PMS_P2;Temp;Humidity;BMP_temperature;BMP_pressure;BME280_temperature;BME280_humidity;BME280_pressure;Samples;Min_cycle;Max_cycle;Signal;HPM_P1;HPM_P2
2023/08/18 00:00:29;;;;;;;7.75;2.33;;;16.30;99.90;;;;;;5044376;28;20124;-66
2023/08/18 00:02:55;;;;;;;8.32;1.92;;;16.30;99.90;;;;;;5043905;28;20135;-64
2023/08/18 00:05:21;;;;;;;6.80;2.25;;;16.30;99.90;;;;;;5045809;28;20464;-66
2023/08/18 00:07:47;;;;;;;7.05;2.03;;;16.30;99.90;;;;;;5045777;28;20055;-66
2023/08/18 00:10:12;;;;;;;7.07;2.40;;;16.30;99.90;;;;;;5045015;28;20087;-65
2023/08/18 00:12:38;;;;;;;6.82;2.33;;;16.30;99.90;;;;;;5065532;28;20044;-68
2023/08/18 00:15:04;;;;;;;7.40;2.47;;;16.30;99.90;;;;;;5058580;28;20461;-65
2023/08/18 00:17:30;;;;;;;7.57;2.75;;;16.30;99.90;;;;;;5026928;28;20045;-63
2023/08/18 00:19:55;;;;;;;6.35;2.50;;;16.30;99.90;;;;;;5027906;28;20079;-65
2023/08/18 00:22:21;;;;;;;7.13;2.45;;;16.30;99.90;;;;;;5027342;28;20049;-64
2023/08/18 00:24:47;;;;;;;8.30;2.70;;;16.30;99.90;;;;;;5053618;28;20119;-66
2023/08/18 00:27:13;;;;;;;8.43;2.53;;;16.30;99.90;;;;;;5065296;28;20040;-64
2023/08/18 00:29:39;;;;;;;9.63;2.60;;;16.30;99.90;;;;;;5047269;28;20040;-63
2023/08/18 00:32:04;;;;;;;7.35;2.80;;;16.30;99.90;;;;;;5034951;28;20045;-64
2023/08/18 00:34:30;;;;;;;10.05;2.53;;;16.30;99.90;;;;;;5044845;28;20538;-68
2023/08/18 00:36:56;;;;;;;11.55;3.17;;;16.30;99.90;;;;;;5027287;28;20037;-65
2023/08/18 00:39:22;;;;;;;8.68;2.83;;;16.30;99.90;;;;;;5045350;28;20132;-65
2023/08/18 00:41:47;;;;;;;5.88;2.38;;;16.30;99.90;;;;;;5044042;28;20056;-67
2023/08/18 00:44:13;;;;;;;6.15;2.70;;;16.30;99.90;;;;;;5044024;28;20135;-66
2023/08/18 00:46:39;;;;;;;9.40;2.90;;;16.30;99.90;;;;;;5027095;28;20106;-66
2023/08/18 00:49:08;;;;;;;7.30;2.67;;;16.30;99.90;;;;;;5026427;28;20045;-67
2023/08/18 00:51:35;;;;;;;6.35;2.65;;;16.30;99.90;;;;;;5043370;28;20098;-64
2023/08/18 00:54:02;;;;;;;10.70;2.92;;;16.30;99.90;;;;;;5045135;28;20484;-68
2023/08/18 00:56:28;;;;;;;7.82;2.97;;;16.30;99.90;;;;;;5046657;28;20031;-63
2023/08/18 00:58:54;;;;;;;8.20;3.03;;;16.30;99.90;;;;;;5063476;28;20491;-69
2023/08/18 01:01:20;;;;;;;6.80;2.40;;;16.30;99.90;;;;;;5043820;28;20035;-64
2023/08/18 01:03:46;;;;;;;9.35;2.90;;;16.30;99.90;;;;;;5044445;28;20106;-64
2023/08/18 01:06:12;;;;;;;6.50;2.83;;;16.20;99.90;;;;;;5044813;28;20045;-68
2023/08/18 01:08:37;;;;;;;11.30;3.00;;;16.30;99.90;;;;;;5043491;28;20072;-66
2023/08/18 01:11:21;;;;;;;6.95;2.75;;;16.30;99.90;;;;;;5043624;28;20127;-65
2023/08/18 01:14:02;;;;;;;9.07;3.10;;;16.30;99.90;;;;;;5060869;28;20045;-64
2023/08/18 01:16:28;;;;;;;7.65;2.90;;;16.30;99.90;;;;;;5065025;28;20043;-66
2023/08/18 01:18:55;;;;;;;7.63;2.72;;;16.20;99.90;;;;;;5041052;28;20123;-67
2023/08/18 01:21:23;;;;;;;7.00;2.83;;;16.20;99.90;;;;;;5063252;28;20048;-67
2023/08/18 01:23:49;;;;;;;11.50;3.08;;;16.20;99.90;;;;;;5063448;28;20082;-65
2023/08/18 01:26:14;;;;;;;5.95;2.67;;;16.20;99.90;;;;;;5062448;28;20040;-67
2023/08/18 01:28:41;;;;;;;6.10;2.63;;;16.20;99.90;;;;;;5067456;28;20058;-67
2023/08/18 01:31:10;;;;;;;6.78;3.22;;;16.20;99.90;;;;;;5059838;28;20399;-67
2023/08/18 01:33:45;;;;;;;6.38;2.70;;;16.20;99.90;;;;;;5081508;28;20381;-66
2023/08/18 01:36:15;;;;;;;9.10;2.85;;;16.20;99.90;;;;;;5067058;28;20585;-67
2023/08/18 01:38:44;;;;;;;7.20;3.00;;;16.20;99.90;;;;;;5067101;28;20503;-67
2023/08/18 01:41:12;;;;;;;10.77;3.08;;;16.20;99.90;;;;;;5068408;28;20115;-67
2023/08/18 01:43:38;;;;;;;5.82;2.95;;;16.20;99.90;;;;;;5067546;28;20482;-66
2023/08/18 01:46:03;;;;;;;7.68;3.33;;;16.20;99.90;;;;;;5068369;28;20036;-67
2023/08/18 01:48:29;;;;;;;6.70;2.97;;;16.20;99.90;;;;;;5063818;28;20050;-68
2023/08/18 01:50:55;;;;;;;6.88;3.28;;;16.10;99.90;;;;;;5066684;28;20093;-66
2023/08/18 01:53:20;;;;;;;7.32;3.38;;;16.10;99.90;;;;;;5066909;28;20172;-67
2023/08/18 01:55:46;;;;;;;7.18;3.00;;;16.10;99.90;;;;;;5066753;28;20048;-68
2023/08/18 01:58:11;;;;;;;11.38;3.78;;;16.10;99.90;;;;;;5049569;28;20044;-68
2023/08/18 02:00:37;;;;;;;9.27;3.47;;;16.10;99.90;;;;;;5048820;28;20060;-67
2023/08/18 02:03:03;;;;;;;7.47;3.20;;;16.10;99.90;;;;;;5046013;28;20135;-68
2023/08/18 02:05:29;;;;;;;9.85;3.63;;;16.10;99.90;;;;;;5066426;28;20155;-68
2023/08/18 02:07:55;;;;;;;8.38;3.88;;;16.10;99.90;;;;;;5068068;28;20546;-66
2023/08/18 02:10:20;;;;;;;7.70;3.63;;;16.10;99.90;;;;;;5068047;28;20040;-67
2023/08/18 02:12:46;;;;;;;8.45;3.60;;;16.10;99.90;;;;;;5055410;28;20226;-67
2023/08/18 02:15:12;;;;;;;8.13;4.03;;;16.00;99.90;;;;;;5045874;28;20049;-66
2023/08/18 02:17:37;;;;;;;9.43;3.65;;;16.10;99.90;;;;;;5063037;28;20041;-67
2023/08/18 02:20:04;;;;;;;7.75;3.67;;;16.10;99.90;;;;;;5067722;28;20040;-67
2023/08/18 02:22:29;;;;;;;8.75;3.80;;;16.10;99.90;;;;;;5066247;28;20616;-67
2023/08/18 02:24:55;;;;;;;11.68;4.22;;;16.10;99.90;;;;;;5067805;28;20048;-69
2023/08/18 02:27:21;;;;;;;8.93;4.13;;;16.00;99.90;;;;;;5066636;28;20579;-68
2023/08/18 02:29:47;;;;;;;8.10;3.97;;;16.00;99.90;;;;;;5046026;28;20045;-67
2023/08/18 02:32:13;;;;;;;6.72;4.15;;;16.00;99.90;;;;;;5053873;28;20090;-67
2023/08/18 02:34:38;;;;;;;8.85;4.45;;;16.00;99.90;;;;;;5026698;28;20420;-68
2023/08/18 02:37:04;;;;;;;8.55;4.50;;;16.00;99.90;;;;;;5025606;28;20059;-67
2023/08/18 02:39:30;;;;;;;10.73;4.32;;;16.00;99.90;;;;;;5026065;28;20570;-69
2023/08/18 02:41:56;;;;;;;9.40;4.50;;;16.00;99.90;;;;;;5037641;28;20041;-67
2023/08/18 02:44:25;;;;;;;9.43;4.95;;;16.10;99.90;;;;;;5046085;28;20052;-66
2023/08/18 02:46:51;;;;;;;8.38;4.32;;;16.00;99.90;;;;;;5045862;28;20041;-65
2023/08/18 02:49:16;;;;;;;10.57;5.00;;;16.10;99.90;;;;;;5043391;28;20106;-68
2023/08/18 02:51:42;;;;;;;7.75;4.75;;;16.00;99.90;;;;;;5065715;28;20507;-69
2023/08/18 02:54:07;;;;;;;11.52;5.28;;;16.00;99.90;;;;;;5049105;28;20055;-67
2023/08/18 02:56:33;;;;;;;8.77;5.40;;;16.10;99.90;;;;;;5065418;28;20090;-68
2023/08/18 02:58:59;;;;;;;9.48;5.25;;;16.10;99.90;;;;;;5045159;28;20033;-67
2023/08/18 03:01:24;;;;;;;12.38;5.75;;;16.00;99.90;;;;;;5066908;28;20375;-68
2023/08/18 03:03:50;;;;;;;10.20;5.50;;;16.00;99.90;;;;;;5061747;28;20063;-68
2023/08/18 03:06:15;;;;;;;10.50;5.88;;;16.00;99.90;;;;;;5065753;28;20044;-68
2023/08/18 03:08:41;;;;;;;11.85;5.57;;;16.00;99.90;;;;;;5049021;28;20106;-67
2023/08/18 03:11:07;;;;;;;9.23;5.10;;;16.10;99.90;;;;;;5046753;28;20227;-67
2023/08/18 03:13:33;;;;;;;11.15;5.75;;;16.10;99.90;;;;;;5050960;28;20044;-68
2023/08/18 03:15:59;;;;;;;9.85;5.60;;;16.10;99.90;;;;;;5048870;28;20581;-67
2023/08/18 03:18:25;;;;;;;9.70;5.72;;;16.10;99.90;;;;;;5054607;28;20041;-67
2023/08/18 03:20:57;;;;;;;11.63;6.15;;;16.10;99.90;;;;;;5045174;28;20066;-63
2023/08/18 03:23:23;;;;;;;11.63;6.43;;;16.10;99.90;;;;;;5045254;28;20056;-66
2023/08/18 03:25:49;;;;;;;11.70;6.47;;;16.10;99.90;;;;;;5046317;28;20036;-65
2023/08/18 03:28:14;;;;;;;12.30;6.18;;;16.10;99.90;;;;;;5045535;28;20047;-67
2023/08/18 03:30:40;;;;;;;12.35;6.60;;;16.10;99.90;;;;;;5046396;28;20048;-66
2023/08/18 03:33:06;;;;;;;12.23;6.88;;;16.10;99.90;;;;;;5053580;28;20049;-66
2023/08/18 03:35:35;;;;;;;12.23;6.80;;;16.10;99.90;;;;;;5045006;28;20037;-65
2023/08/18 03:38:01;;;;;;;11.32;6.47;;;16.10;99.90;;;;;;5044987;28;20043;-69
2023/08/18 03:40:27;;;;;;;13.32;6.70;;;16.10;99.90;;;;;;5044549;28;20090;-64
2023/08/18 03:42:52;;;;;;;14.45;7.50;;;16.10;99.90;;;;;;5046011;28;20474;-66
2023/08/18 03:45:18;;;;;;;10.80;6.95;;;16.10;99.90;;;;;;5045060;28;20052;-67
2023/08/18 03:47:45;;;;;;;12.45;7.07;;;16.10;99.90;;;;;;5048611;28;20044;-68
2023/08/18 03:50:11;;;;;;;11.40;6.80;;;16.10;99.90;;;;;;5032461;28;20083;-66
2023/08/18 03:52:37;;;;;;;12.15;7.18;;;16.10;99.90;;;;;;5098268;28;20040;-64
2023/08/18 03:55:03;;;;;;;14.13;8.10;;;16.10;99.90;;;;;;5062583;28;20044;-69
2023/08/18 03:57:28;;;;;;;12.15;7.35;;;16.10;99.90;;;;;;5064517;28;20036;-65
2023/08/18 03:59:55;;;;;;;12.05;7.43;;;16.10;99.90;;;;;;5065981;28;20037;-67
2023/08/18 04:02:22;;;;;;;10.68;7.10;;;16.10;99.90;;;;;;5061867;28;20060;-66
2023/08/18 04:04:47;;;;;;;13.73;8.50;;;16.10;99.90;;;;;;5064501;28;20040;-66
2023/08/18 04:07:13;;;;;;;17.52;7.95;;;16.10;99.90;;;;;;5046531;28;20047;-68
2023/08/18 04:09:38;;;;;;;13.98;7.25;;;16.10;99.90;;;;;;5044254;28;20048;-64
2023/08/18 04:12:04;;;;;;;13.10;7.97;;;16.10;99.90;;;;;;5044290;28;20056;-65
2023/08/18 04:14:30;;;;;;;15.57;7.90;;;16.10;99.90;;;;;;5044188;28;20041;-64
2023/08/18 04:16:56;;;;;;;12.40;7.78;;;16.10;99.90;;;;;;5045588;28;20519;-66
2023/08/18 04:19:21;;;;;;;14.32;8.00;;;16.10;99.90;;;;;;5044474;28;20272;-64
2023/08/18 04:21:47;;;;;;;15.27;8.00;;;16.10;99.90;;;;;;5027267;28;20499;-64
2023/08/18 04:24:13;;;;;;;13.30;8.65;;;16.10;99.90;;;;;;5064339;28;20041;-67
2023/08/18 04:26:40;;;;;;;13.00;7.72;;;16.10;99.90;;;;;;5065183;28;20543;-66
2023/08/18 04:29:06;;;;;;;16.80;8.60;;;16.10;99.90;;;;;;5050867;28;20033;-67
2023/08/18 04:31:31;;;;;;;14.85;8.07;;;16.10;99.90;;;;;;5023787;28;20041;-64
2023/08/18 04:33:58;;;;;;;13.75;8.40;;;16.10;99.90;;;;;;5044889;28;20037;-67
2023/08/18 04:36:23;;;;;;;14.95;8.65;;;16.10;99.90;;;;;;5044077;28;20082;-66
2023/08/18 04:38:49;;;;;;;13.50;7.72;;;16.20;99.90;;;;;;5054224;28;20454;-67
2023/08/18 04:41:15;;;;;;;13.68;8.18;;;16.20;99.90;;;;;;5065241;28;20028;-66
2023/08/18 04:43:40;;;;;;;14.23;8.18;;;16.20;99.90;;;;;;5063859;28;20048;-64
2023/08/18 04:46:06;;;;;;;15.68;7.50;;;16.20;99.90;;;;;;5062375;28;20390;-67
2023/08/18 04:48:32;;;;;;;16.60;8.70;;;16.20;99.90;;;;;;5043371;28;20163;-68
2023/08/18 04:50:58;;;;;;;15.13;8.18;;;16.20;99.90;;;;;;5063581;28;20044;-67
2023/08/18 04:53:24;;;;;;;13.57;7.50;;;16.20;99.90;;;;;;5065185;28;20036;-66
2023/08/18 04:55:50;;;;;;;15.27;8.02;;;16.20;99.90;;;;;;5046651;28;20051;-66
2023/08/18 04:58:15;;;;;;;15.73;8.45;;;16.20;99.90;;;;;;5051155;28;20048;-65
2023/08/18 05:00:45;;;;;;;14.07;8.70;;;16.20;99.90;;;;;;5043309;28;20045;-64
2023/08/18 05:03:11;;;;;;;16.00;7.82;;;16.20;99.90;;;;;;5025765;28;20068;-65
2023/08/18 05:05:56;;;;;;;16.63;8.15;;;16.20;99.90;;;;;;5045254;28;20409;-66
2023/08/18 05:08:21;;;;;;;12.95;8.25;;;16.20;99.90;;;;;;5027104;28;20032;-65
2023/08/18 05:10:47;;;;;;;14.60;8.60;;;16.20;99.90;;;;;;5050436;28;20043;-68
2023/08/18 05:13:13;;;;;;;16.48;8.32;;;16.20;99.90;;;;;;5063470;28;20394;-66
2023/08/18 05:15:39;;;;;;;16.73;8.23;;;16.20;99.90;;;;;;5047259;28;20045;-66
2023/08/18 05:18:04;;;;;;;17.08;8.82;;;16.20;99.90;;;;;;5052758;28;20056;-66
2023/08/18 05:20:30;;;;;;;13.90;8.70;;;16.20;99.90;;;;;;5046836;28;20610;-66
2023/08/18 05:22:56;;;;;;;18.25;8.93;;;16.20;99.90;;;;;;5063386;28;20123;-67
2023/08/18 05:25:22;;;;;;;15.07;8.18;;;16.20;99.90;;;;;;5046732;28;20218;-67
2023/08/18 05:27:47;;;;;;;19.65;8.25;;;16.20;99.90;;;;;;5061384;28;20124;-67
2023/08/18 05:30:13;;;;;;;14.27;8.25;;;16.20;99.90;;;;;;5063482;28;20048;-67
2023/08/18 05:32:39;;;;;;;13.32;8.65;;;16.20;99.90;;;;;;5031917;28;20377;-65
2023/08/18 05:35:05;;;;;;;13.73;8.52;;;16.20;99.90;;;;;;5046689;28;20067;-68
2023/08/18 05:37:31;;;;;;;16.95;8.25;;;16.20;99.90;;;;;;5046840;28;20510;-64
2023/08/18 05:39:57;;;;;;;13.93;7.65;;;16.30;99.90;;;;;;5063603;28;20045;-65
2023/08/18 05:42:22;;;;;;;16.20;8.35;;;16.30;99.90;;;;;;5061110;28;20040;-68
2023/08/18 05:44:48;;;;;;;18.15;7.95;;;16.20;99.90;;;;;;5044695;28;20437;-68
2023/08/18 05:47:14;;;;;;;16.63;8.05;;;16.30;99.90;;;;;;5043122;28;20158;-67
2023/08/18 05:49:39;;;;;;;14.57;8.23;;;16.30;99.90;;;;;;5042241;28;20040;-67
2023/08/18 05:52:05;;;;;;;17.60;8.27;;;16.20;99.90;;;;;;5043509;28;20103;-66
2023/08/18 05:54:31;;;;;;;15.68;8.27;;;16.30;99.90;;;;;;5044456;28;20127;-67
2023/08/18 05:56:57;;;;;;;15.05;8.25;;;16.30;99.90;;;;;;5041714;28;20044;-65
2023/08/18 05:59:22;;;;;;;16.38;8.43;;;16.30;99.90;;;;;;5063177;28;20098;-67
2023/08/18 06:01:50;;;;;;;15.68;7.60;;;16.30;99.90;;;;;;5044118;28;20632;-67
2023/08/18 06:04:15;;;;;;;17.90;7.57;;;16.30;99.90;;;;;;5042521;28;20629;-66
2023/08/18 06:06:41;;;;;;;19.40;8.10;;;16.30;99.90;;;;;;5042865;28;20041;-64
2023/08/18 06:09:07;;;;;;;16.77;7.90;;;16.40;99.90;;;;;;5044657;28;20071;-65
2023/08/18 06:11:35;;;;;;;16.25;8.23;;;16.40;99.90;;;;;;5055728;28;20048;-64
2023/08/18 06:14:01;;;;;;;16.02;8.15;;;16.40;99.90;;;;;;5066474;28;20155;-64
2023/08/18 06:16:26;;;;;;;17.25;7.40;;;16.40;99.90;;;;;;5100562;28;20166;-66
2023/08/18 06:18:52;;;;;;;17.40;7.75;;;16.40;99.90;;;;;;5048404;28;20515;-64
2023/08/18 06:21:18;;;;;;;17.30;8.32;;;16.40;99.90;;;;;;5046372;28;20029;-63
2023/08/18 06:23:44;;;;;;;17.60;7.53;;;16.40;99.90;;;;;;5059531;28;20440;-64
2023/08/18 06:26:10;;;;;;;15.98;7.55;;;16.40;99.90;;;;;;5065972;28;20051;-64
2023/08/18 06:28:35;;;;;;;17.52;7.88;;;16.40;99.90;;;;;;5064745;28;20106;-66
2023/08/18 06:31:07;;;;;;;16.25;7.82;;;16.40;99.90;;;;;;5062545;28;20535;-66
2023/08/18 06:33:34;;;;;;;12.50;7.50;;;16.50;99.90;;;;;;5053772;28;20040;-63
2023/08/18 06:36:01;;;;;;;15.80;7.25;;;16.50;99.90;;;;;;5066020;28;20045;-66
2023/08/18 06:38:26;;;;;;;18.02;7.55;;;16.50;99.90;;;;;;5066453;28;20068;-62
2023/08/18 06:40:52;;;;;;;15.15;7.07;;;16.50;99.90;;;;;;5066414;28;20060;-65
2023/08/18 06:43:17;;;;;;;14.90;7.40;;;16.50;99.90;;;;;;5066324;28;20055;-66
2023/08/18 06:45:43;;;;;;;16.83;7.13;;;16.50;99.90;;;;;;5048783;28;20060;-66
2023/08/18 06:48:09;;;;;;;17.15;7.50;;;16.60;99.90;;;;;;5051257;28;20037;-67
2023/08/18 06:50:34;;;;;;;17.20;7.43;;;16.60;99.90;;;;;;5065818;28;20055;-68
2023/08/18 06:53:00;;;;;;;14.13;7.63;;;16.50;99.90;;;;;;5067059;28;20063;-65
2023/08/18 06:55:25;;;;;;;16.70;8.30;;;16.60;99.90;;;;;;5064088;28;20071;-64
2023/08/18 06:57:51;;;;;;;17.58;6.90;;;16.70;99.90;;;;;;5065791;28;20040;-64
2023/08/18 07:00:20;;;;;;;15.50;7.25;;;16.70;99.90;;;;;;5066298;28;20411;-69
2023/08/18 07:02:46;;;;;;;19.15;7.15;;;16.70;99.90;;;;;;5064639;28;20123;-66
2023/08/18 07:05:13;;;;;;;15.57;7.30;;;16.80;99.90;;;;;;5065727;28;20147;-67
2023/08/18 07:07:39;;;;;;;14.20;7.25;;;16.80;99.90;;;;;;5048973;28;20135;-69
2023/08/18 07:10:05;;;;;;;13.35;7.38;;;16.80;99.90;;;;;;5061992;28;20416;-66
2023/08/18 07:12:33;;;;;;;14.30;6.38;;;16.90;99.90;;;;;;5079306;28;20044;-68
2023/08/18 07:14:59;;;;;;;16.02;7.20;;;16.90;99.90;;;;;;5045816;28;20040;-67
2023/08/18 07:17:24;;;;;;;13.95;7.00;;;16.90;99.90;;;;;;5078545;28;20033;-68
2023/08/18 07:19:50;;;;;;;16.17;7.32;;;16.90;99.90;;;;;;5044882;28;20041;-68
2023/08/18 07:22:16;;;;;;;18.40;9.07;;;17.00;99.90;;;;;;5046692;28;20044;-67
2023/08/18 07:24:41;;;;;;;19.98;8.00;;;17.00;99.90;;;;;;5031895;28;20123;-65
2023/08/18 07:27:07;;;;;;;21.58;8.10;;;17.00;99.90;;;;;;5064928;28;20051;-67
2023/08/18 07:29:34;;;;;;;21.65;8.82;;;17.00;99.90;;;;;;5048725;28;20499;-65
2023/08/18 07:32:00;;;;;;;20.20;9.25;;;17.00;99.90;;;;;;5049413;28;20045;-63
2023/08/18 07:34:26;;;;;;;26.90;10.50;;;17.00;99.90;;;;;;5061185;28;20044;-65
2023/08/18 07:36:51;;;;;;;22.75;9.63;;;17.00;99.90;;;;;;5064977;28;20051;-63
2023/08/18 07:39:18;;;;;;;29.13;10.43;;;17.00;99.90;;;;;;5052177;28;20044;-67
2023/08/18 07:41:44;;;;;;;23.63;9.43;;;17.10;99.90;;;;;;5028006;28;20035;-66
2023/08/18 07:44:10;;;;;;;21.63;9.27;;;17.10;99.90;;;;;;5045151;28;20049;-67
2023/08/18 07:46:36;;;;;;;22.05;8.88;;;17.10;99.90;;;;;;5054967;28;20060;-64
2023/08/18 07:49:02;;;;;;;26.75;8.43;;;17.20;99.90;;;;;;5063957;28;20044;-65
2023/08/18 07:51:29;;;;;;;24.98;8.93;;;17.20;99.90;;;;;;5064424;28;20048;-65
2023/08/18 07:53:54;;;;;;;25.00;9.25;;;17.20;99.90;;;;;;5064732;28;20097;-67
2023/08/18 07:56:20;;;;;;;28.38;9.05;;;17.30;99.90;;;;;;5064770;28;20040;-68
2023/08/18 07:58:45;;;;;;;24.25;9.10;;;17.30;99.90;;;;;;5064903;28;20044;-65
2023/08/18 08:01:11;;;;;;;22.70;9.73;;;17.30;99.90;;;;;;5064705;28;20568;-67
2023/08/18 08:03:37;;;;;;;24.02;9.68;;;17.30;99.90;;;;;;5061645;28;20083;-68
2023/08/18 08:06:04;;;;;;;24.50;10.65;;;17.40;99.90;;;;;;5065290;28;20547;-70
2023/08/18 08:08:30;;;;;;;21.08;9.57;;;17.40;99.90;;;;;;5063981;28;20047;-68
2023/08/18 08:10:57;;;;;;;22.30;8.85;;;17.40;99.90;;;;;;5059597;28;20119;-67
2023/08/18 08:13:23;;;;;;;24.73;9.73;;;17.50;99.90;;;;;;5027958;28;20052;-66
2023/08/18 08:15:48;;;;;;;21.15;9.27;;;17.50;99.90;;;;;;5057106;28;20470;-67
2023/08/18 08:18:15;;;;;;;19.98;9.68;;;17.50;99.90;;;;;;5058328;28;20033;-67
2023/08/18 08:20:42;;;;;;;20.27;10.02;;;17.60;99.90;;;;;;5027874;28;20082;-67
2023/08/18 08:23:07;;;;;;;21.42;9.57;;;17.60;99.90;;;;;;5044331;28;20442;-67
2023/08/18 08:25:34;;;;;;;29.50;10.10;;;17.60;99.90;;;;;;5044225;28;20037;-66
2023/08/18 08:28:00;;;;;;;23.20;9.95;;;17.60;99.90;;;;;;5044265;28;20635;-64
2023/08/18 08:30:26;;;;;;;24.13;10.88;;;17.60;99.90;;;;;;5044446;28;20144;-68
2023/08/18 08:32:51;;;;;;;22.90;10.18;;;17.60;99.90;;;;;;5035324;28;20037;-67
2023/08/18 08:35:17;;;;;;;20.65;9.77;;;17.60;99.90;;;;;;5043914;28;20045;-63
2023/08/18 08:37:43;;;;;;;21.52;9.70;;;17.60;99.90;;;;;;5045703;28;20507;-66
2023/08/18 08:40:20;;;;;;;16.85;9.52;;;17.60;99.90;;;;;;5045856;28;20540;-61
2023/08/18 08:42:48;;;;;;;15.27;9.48;;;17.60;99.90;;;;;;5060674;28;20709;-62
2023/08/18 08:45:14;;;;;;;18.30;9.68;;;17.70;99.90;;;;;;5063944;28;20224;-65
2023/08/18 08:47:43;;;;;;;19.20;9.98;;;17.70;99.90;;;;;;5056907;28;20096;-64
2023/08/18 08:50:09;;;;;;;20.70;10.25;;;17.70;99.90;;;;;;5044239;28;20119;-67
2023/08/18 08:52:39;;;;;;;16.33;9.68;;;17.70;99.90;;;;;;5043757;28;20037;-69
2023/08/18 08:55:07;;;;;;;20.40;10.63;;;17.70;99.90;;;;;;5043913;28;20071;-64
2023/08/18 08:57:33;;;;;;;17.88;9.57;;;17.80;99.90;;;;;;5048448;28;20127;-62
2023/08/18 08:59:59;;;;;;;19.38;10.52;;;17.90;99.90;;;;;;5063893;28;20068;-67
2023/08/18 09:02:25;;;;;;;22.27;9.27;;;17.90;99.90;;;;;;5063581;28;20053;-67
2023/08/18 09:04:51;;;;;;;18.25;9.45;;;17.90;99.90;;;;;;5026830;28;20460;-69
2023/08/18 09:07:17;;;;;;;18.17;9.75;;;17.90;99.90;;;;;;5043491;28;20044;-65
2023/08/18 09:09:44;;;;;;;18.23;8.55;;;18.00;99.90;;;;;;5044743;28;20025;-63
2023/08/18 09:12:10;;;;;;;18.33;8.93;;;18.10;99.90;;;;;;5043589;28;20103;-62
2023/08/18 09:14:39;;;;;;;17.73;9.00;;;18.10;99.90;;;;;;5048513;28;20383;-65
2023/08/18 09:17:06;;;;;;;16.00;9.35;;;18.20;99.90;;;;;;5065225;28;20414;-64
2023/08/18 09:19:32;;;;;;;18.33;9.55;;;18.30;99.90;;;;;;5045596;28;20045;-67
2023/08/18 09:22:01;;;;;;;19.90;9.65;;;18.40;99.90;;;;;;5077037;28;20128;-64
2023/08/18 09:24:29;;;;;;;14.57;9.15;;;18.40;99.90;;;;;;5058434;28;20037;-65
2023/08/18 09:27:05;;;;;;;15.02;8.93;;;18.50;99.90;;;;;;5061811;28;20080;-65
2023/08/18 09:29:32;;;;;;;15.75;9.27;;;18.50;99.90;;;;;;5043451;28;20045;-64
2023/08/18 09:31:57;;;;;;;17.60;10.48;;;18.60;99.90;;;;;;5043630;28;20411;-66
2023/08/18 09:34:24;;;;;;;17.45;9.82;;;18.70;99.90;;;;;;5056879;28;20098;-64
2023/08/18 09:36:56;;;;;;;19.80;9.48;;;18.70;99.90;;;;;;5063681;28;20170;-66
2023/08/18 09:39:25;;;;;;;17.25;9.10;;;18.80;99.90;;;;;;5063333;28;20127;-66
2023/08/18 09:41:52;;;;;;;14.50;9.40;;;18.80;99.90;;;;;;5058058;28;20063;-63
2023/08/18 09:44:18;;;;;;;18.77;9.90;;;18.80;99.90;;;;;;5043549;28;20041;-61
2023/08/18 09:46:57;;;;;;;15.55;9.35;;;18.90;99.90;;;;;;5051716;28;20044;-62
2023/08/18 09:49:24;;;;;;;17.73;9.45;;;18.90;99.90;;;;;;5066383;28;20395;-65
2023/08/18 09:52:06;;;;;;;18.98;10.50;;;18.80;99.90;;;;;;5067040;28;20040;-66
2023/08/18 09:54:43;;;;;;;18.52;10.48;;;18.90;99.90;;;;;;5057585;28;20305;-66
2023/08/18 09:57:25;;;;;;;17.25;11.02;;;19.00;99.90;;;;;;5048384;28;20488;-66
2023/08/18 09:59:57;;;;;;;16.00;10.20;;;19.10;99.90;;;;;;5047211;28;20037;-66
2023/08/18 10:02:44;;;;;;;15.98;10.32;;;19.20;99.90;;;;;;5030455;28;20497;-66
2023/08/18 10:05:12;;;;;;;16.15;10.00;;;19.20;99.90;;;;;;5027001;28;20060;-64
2023/08/18 10:07:39;;;;;;;13.02;8.98;;;19.30;99.90;;;;;;5026902;28;20590;-68
2023/08/18 10:10:06;;;;;;;19.50;10.02;;;19.30;99.90;;;;;;5028702;28;20045;-64
2023/08/18 10:12:32;;;;;;;15.75;10.23;;;19.40;99.90;;;;;;5039013;28;20577;-63
2023/08/18 10:14:58;;;;;;;15.68;10.63;;;19.40;99.90;;;;;;5046263;28;20306;-66
2023/08/18 10:17:24;;;;;;;18.15;11.32;;;19.40;99.90;;;;;;5048205;28;20037;-66
2023/08/18 10:20:00;;;;;;;16.95;10.43;;;19.40;99.90;;;;;;5047318;28;20464;-66
2023/08/18 10:22:32;;;;;;;17.70;11.52;;;19.50;99.90;;;;;;5049018;28;20109;-66
2023/08/18 10:24:58;;;;;;;16.42;11.02;;;19.50;99.90;;;;;;5066618;28;20048;-67
2023/08/18 10:27:26;;;;;;;17.92;11.60;;;19.50;99.90;;;;;;5067781;28;20036;-65
2023/08/18 10:29:59;;;;;;;19.00;11.75;;;19.60;99.90;;;;;;5053444;28;20048;-65
2023/08/18 10:32:25;;;;;;;19.08;11.05;;;19.70;99.90;;;;;;5031503;28;20509;-66
2023/08/18 10:34:51;;;;;;;16.30;9.77;;;19.70;99.90;;;;;;5046369;28;20123;-66
2023/08/18 10:37:20;;;;;;;17.98;11.18;;;19.80;99.90;;;;;;5047546;28;20041;-65
2023/08/18 10:39:48;;;;;;;14.75;9.93;;;19.90;99.90;;;;;;5063174;28;20476;-66
2023/08/18 10:42:15;;;;;;;17.63;9.90;;;20.00;99.90;;;;;;5058068;28;20492;-68
2023/08/18 10:45:23;;;;;;;17.20;9.82;;;20.00;99.90;;;;;;5046149;28;20489;-67
2023/08/18 10:47:49;;;;;;;13.25;9.90;;;20.10;99.90;;;;;;5024912;28;20158;-65
2023/08/18 10:50:15;;;;;;;17.58;9.38;;;20.20;99.90;;;;;;5059642;28;20316;-65
2023/08/18 10:52:41;;;;;;;13.05;9.98;;;20.30;99.90;;;;;;5065824;28;20338;-65
2023/08/18 10:55:07;;;;;;;16.80;9.35;;;20.20;99.90;;;;;;5065961;28;20036;-66
2023/08/18 10:57:37;;;;;;;15.40;10.10;;;20.30;99.90;;;;;;5066038;28;20054;-65
2023/08/18 11:00:10;;;;;;;14.73;9.45;;;20.40;99.90;;;;;;5049372;28;20033;-67
2023/08/18 11:02:37;;;;;;;12.93;9.25;;;20.40;99.90;;;;;;5065551;28;20060;-69
2023/08/18 11:05:04;;;;;;;14.23;8.60;;;20.40;99.90;;;;;;5066601;28;20041;-66
2023/08/18 11:07:30;;;;;;;15.63;9.15;;;20.50;99.90;;;;;;5046077;28;20048;-66
2023/08/18 11:09:56;;;;;;;13.27;9.60;;;20.60;99.90;;;;;;5062782;28;20051;-67
2023/08/18 11:12:22;;;;;;;12.68;8.85;;;20.70;99.90;;;;;;5046851;28;20207;-67
2023/08/18 11:14:48;;;;;;;13.82;9.07;;;20.70;99.90;;;;;;5045415;28;20052;-66
2023/08/18 11:17:14;;;;;;;12.80;9.00;;;20.70;99.90;;;;;;5045610;28;20325;-66
2023/08/18 11:19:40;;;;;;;21.45;9.27;;;20.80;99.90;;;;;;5044552;28;20477;-66
2023/08/18 11:22:05;;;;;;;16.42;8.75;;;20.80;99.90;;;;;;5032493;28;20036;-65
2023/08/18 11:24:33;;;;;;;12.88;8.50;;;20.90;99.90;;;;;;5066862;28;20636;-67
2023/08/18 11:26:58;;;;;;;15.18;9.88;;;20.90;99.90;;;;;;5048587;28;20127;-67
2023/08/18 11:29:27;;;;;;;14.40;9.73;;;21.00;99.90;;;;;;5047885;28;20178;-67
2023/08/18 11:31:53;;;;;;;14.18;10.05;;;21.10;99.90;;;;;;5047999;28;20107;-66
2023/08/18 11:34:20;;;;;;;13.55;10.43;;;21.10;99.90;;;;;;5064508;28;20257;-65
2023/08/18 11:36:46;;;;;;;13.35;9.65;;;21.20;99.90;;;;;;5059280;28;20036;-67
2023/08/18 11:39:12;;;;;;;11.98;9.25;;;21.40;99.90;;;;;;5044963;28;20056;-70
2023/08/18 11:41:42;;;;;;;14.40;9.23;;;21.50;99.90;;;;;;5029179;28;20084;-66
2023/08/18 11:44:09;;;;;;;14.18;9.57;;;21.50;99.90;;;;;;5045052;28;20428;-66
2023/08/18 11:46:39;;;;;;;15.32;10.25;;;21.50;99.90;;;;;;5045825;28;20504;-66
2023/08/18 11:49:19;;;;;;;13.05;9.70;;;21.50;99.90;;;;;;5044496;28;20360;-66
2023/08/18 11:51:59;;;;;;;15.25;10.18;;;21.50;99.90;;;;;;5044574;28;20047;-67
2023/08/18 11:54:27;;;;;;;17.58;11.40;;;21.50;99.90;;;;;;5044574;28;20047;-67
2023/08/18 11:56:53;;;;;;;14.93;9.95;;;21.50;99.90;;;;;;5055632;28;20127;-65
2023/08/18 11:59:23;;;;;;;16.50;11.18;;;21.50;99.90;;;;;;5048311;28;20310;-65
2023/08/18 12:01:54;;;;;;;14.32;10.20;;;21.50;99.90;;;;;;5063207;28;20404;-65
2023/08/18 12:04:30;;;;;;;17.73;10.88;;;21.50;99.90;;;;;;5049246;28;20144;-65
2023/08/18 12:06:56;;;;;;;17.33;11.85;;;21.60;99.90;;;;;;5047980;28;20663;-66
2023/08/18 12:09:22;;;;;;;14.57;11.80;;;21.60;99.90;;;;;;5064261;28;20668;-65
2023/08/18 12:11:49;;;;;;;19.85;12.40;;;21.60;99.90;;;;;;5063712;28;20040;-67
2023/08/18 12:14:16;;;;;;;17.65;12.88;;;21.60;99.90;;;;;;5047692;28;20496;-67
2023/08/18 12:16:42;;;;;;;19.73;13.00;;;21.60;99.90;;;;;;5051644;28;20037;-68
2023/08/18 12:19:08;;;;;;;19.80;12.43;;;21.60;99.90;;;;;;5055368;28;20568;-68
2023/08/18 12:21:37;;;;;;;17.60;12.77;;;21.70;99.90;;;;;;5065611;28;20072;-66
2023/08/18 12:24:05;;;;;;;19.40;13.48;;;21.70;99.90;;;;;;5062593;28;20041;-65
2023/08/18 12:26:34;;;;;;;19.85;13.07;;;21.80;99.90;;;;;;5065203;28;20133;-64
2023/08/18 12:29:03;;;;;;;18.33;12.70;;;21.80;99.90;;;;;;5035353;28;20095;-62
2023/08/18 12:31:30;;;;;;;17.42;12.73;;;21.80;99.90;;;;;;5038261;28;20037;-65
2023/08/18 12:33:56;;;;;;;21.98;13.18;;;21.80;99.90;;;;;;5078687;28;20346;-62
2023/08/18 12:36:22;;;;;;;18.67;12.10;;;21.70;99.90;;;;;;5063958;28;20119;-63